MTN8109 TJSJ-TAPA
Flight info
| Callsign | MTN8109 |
|---|---|
| Flight time | 1h 45m |
| Altitude | 7000 |
| Route | SJU RTE2 COY G633 ANU |
| Aircraft | C208/L-SDF/C |
Departure
| Time | 2026-04-29 13:07 |
|---|---|
| Airport | Luis Munoz Marin International Airport (TJSJ) |
Arrival
| Time | 2026-04-29 14:52 |
|---|---|
| Airport | V. C. Bird International Airport (TAPA) |
| Time | Latitude | Longitude | Altitude | Speed | Heading |
|---|---|---|---|---|---|
| 2026-04-29 13:02 | 18.44111 | -66.00579 | 16 ft | 0 kts | 253° |
| 2026-04-29 13:02 | 18.44102 | -66.00604 | 16 ft | 7 kts | 231° |
| 2026-04-29 13:03 | 18.44054 | -66.00670 | 16 ft | 16 kts | 245° |
| 2026-04-29 13:03 | 18.44000 | -66.00798 | 16 ft | 23 kts | 251° |
| 2026-04-29 13:03 | 18.43941 | -66.00976 | 16 ft | 28 kts | 246° |
| 2026-04-29 13:03 | 18.43875 | -66.01132 | 16 ft | 18 kts | 245° |
| 2026-04-29 13:04 | 18.43831 | -66.01242 | 16 ft | 19 kts | 248° |
| 2026-04-29 13:04 | 18.43799 | -66.01394 | 16 ft | 23 kts | 274° |
| 2026-04-29 13:04 | 18.43852 | -66.01457 | 16 ft | 12 kts | 342° |
| 2026-04-29 13:04 | 18.43901 | -66.01423 | 16 ft | 1 kts | 68° |
| 2026-04-29 13:05 | 18.43902 | -66.01422 | 16 ft | 1 kts | 68° |
| 2026-04-29 13:05 | 18.43936 | -66.01336 | 16 ft | 32 kts | 67° |
| 2026-04-29 13:05 | 18.44079 | -66.00985 | 16 ft | 71 kts | 68° |
| 2026-04-29 13:05 | 18.44312 | -66.00423 | 57 ft | 91 kts | 65° |
| 2026-04-29 13:06 | 18.44623 | -65.99832 | 231 ft | 93 kts | 57° |
| 2026-04-29 13:06 | 18.45038 | -65.99236 | 335 ft | 109 kts | 53° |
| 2026-04-29 13:06 | 18.45508 | -65.98528 | 387 ft | 122 kts | 57° |
| 2026-04-29 13:06 | 18.45985 | -65.97795 | 607 ft | 121 kts | 56° |
| 2026-04-29 13:07 | 18.46445 | -65.97061 | 801 ft | 119 kts | 57° |
| 2026-04-29 13:07 | 18.46898 | -65.96338 | 995 ft | 118 kts | 57° |
| 2026-04-29 13:07 | 18.47355 | -65.95617 | 1184 ft | 120 kts | 57° |
| 2026-04-29 13:07 | 18.47791 | -65.94865 | 1365 ft | 121 kts | 71° |
| 2026-04-29 13:08 | 18.47690 | -65.94008 | 1600 ft | 120 kts | 103° |
| 2026-04-29 13:08 | 18.47654 | -65.93138 | 1852 ft | 118 kts | 88° |
| 2026-04-29 13:08 | 18.47662 | -65.92281 | 2096 ft | 117 kts | 89° |
| 2026-04-29 13:08 | 18.47676 | -65.91430 | 2333 ft | 115 kts | 88° |
| 2026-04-29 13:09 | 18.47695 | -65.90602 | 2571 ft | 111 kts | 88° |
| 2026-04-29 13:09 | 18.47713 | -65.89800 | 2796 ft | 107 kts | 88° |
| 2026-04-29 13:09 | 18.47734 | -65.89027 | 3026 ft | 104 kts | 87° |
| 2026-04-29 13:09 | 18.47755 | -65.88268 | 3210 ft | 103 kts | 88° |
| 2026-04-29 13:10 | 18.47776 | -65.87518 | 3389 ft | 102 kts | 87° |
| 2026-04-29 13:10 | 18.47796 | -65.86772 | 3539 ft | 104 kts | 88° |
| 2026-04-29 13:10 | 18.47814 | -65.85995 | 3662 ft | 108 kts | 88° |
| 2026-04-29 13:10 | 18.47835 | -65.85195 | 3799 ft | 112 kts | 88° |
| 2026-04-29 13:11 | 18.47856 | -65.84357 | 3932 ft | 116 kts | 88° |
| 2026-04-29 13:11 | 18.47878 | -65.83497 | 4072 ft | 119 kts | 88° |
| 2026-04-29 13:11 | 18.47899 | -65.82610 | 4211 ft | 123 kts | 88° |
| 2026-04-29 13:11 | 18.47923 | -65.81699 | 4348 ft | 126 kts | 88° |
| 2026-04-29 13:12 | 18.47946 | -65.80769 | 4479 ft | 128 kts | 88° |
| 2026-04-29 13:12 | 18.47970 | -65.79823 | 4614 ft | 130 kts | 88° |
| 2026-04-29 13:12 | 18.47996 | -65.78863 | 4740 ft | 132 kts | 88° |
| 2026-04-29 13:12 | 18.48020 | -65.77905 | 4872 ft | 134 kts | 88° |
| 2026-04-29 13:13 | 18.48046 | -65.76905 | 4998 ft | 136 kts | 88° |
| 2026-04-29 13:13 | 18.48072 | -65.75906 | 5120 ft | 137 kts | 88° |
| 2026-04-29 13:13 | 18.48098 | -65.74898 | 5242 ft | 138 kts | 88° |
| 2026-04-29 13:13 | 18.48125 | -65.73885 | 5365 ft | 139 kts | 88° |
| 2026-04-29 13:14 | 18.48149 | -65.72883 | 5491 ft | 138 kts | 88° |
| 2026-04-29 13:14 | 18.48174 | -65.71889 | 5677 ft | 134 kts | 88° |
| 2026-04-29 13:14 | 18.48201 | -65.70922 | 5865 ft | 130 kts | 88° |
| 2026-04-29 13:14 | 18.48224 | -65.69975 | 6049 ft | 128 kts | 88° |
| 2026-04-29 13:15 | 18.48250 | -65.69044 | 6237 ft | 126 kts | 88° |
| 2026-04-29 13:15 | 18.48274 | -65.68125 | 6424 ft | 124 kts | 88° |
| 2026-04-29 13:15 | 18.48296 | -65.67221 | 6595 ft | 123 kts | 88° |
| 2026-04-29 13:15 | 18.48318 | -65.66334 | 6773 ft | 120 kts | 88° |
| 2026-04-29 13:16 | 18.48339 | -65.65462 | 6945 ft | 118 kts | 87° |
| 2026-04-29 13:16 | 18.48365 | -65.64576 | 7015 ft | 127 kts | 88° |
| 2026-04-29 13:16 | 18.48386 | -65.63610 | 7034 ft | 137 kts | 88° |
| 2026-04-29 13:16 | 18.48408 | -65.62572 | 7029 ft | 146 kts | 88° |
| 2026-04-29 13:17 | 18.48434 | -65.61485 | 7027 ft | 149 kts | 88° |
| 2026-04-29 13:17 | 18.48462 | -65.60384 | 7028 ft | 151 kts | 88° |
| 2026-04-29 13:17 | 18.48491 | -65.59273 | 7028 ft | 152 kts | 88° |
| 2026-04-29 13:17 | 18.48519 | -65.58156 | 7025 ft | 153 kts | 88° |
| 2026-04-29 13:18 | 18.48547 | -65.57036 | 7027 ft | 153 kts | 88° |
| 2026-04-29 13:18 | 18.48574 | -65.55930 | 7028 ft | 153 kts | 88° |
| 2026-04-29 13:18 | 18.48602 | -65.54811 | 7026 ft | 153 kts | 88° |
| 2026-04-29 13:18 | 18.48630 | -65.53679 | 7027 ft | 152 kts | 88° |
| 2026-04-29 13:19 | 18.48657 | -65.52562 | 7026 ft | 153 kts | 88° |
| 2026-04-29 13:19 | 18.48685 | -65.51443 | 7025 ft | 153 kts | 88° |
| 2026-04-29 13:19 | 18.48712 | -65.50323 | 7026 ft | 153 kts | 88° |
| 2026-04-29 13:19 | 18.48740 | -65.49202 | 7026 ft | 153 kts | 88° |
| 2026-04-29 13:20 | 18.48767 | -65.48077 | 7026 ft | 153 kts | 88° |
| 2026-04-29 13:20 | 18.48795 | -65.46971 | 7029 ft | 153 kts | 88° |
| 2026-04-29 13:20 | 18.48822 | -65.45847 | 7025 ft | 154 kts | 88° |
| 2026-04-29 13:20 | 18.48848 | -65.44720 | 7026 ft | 154 kts | 88° |
| 2026-04-29 13:21 | 18.48875 | -65.43593 | 7025 ft | 154 kts | 88° |
| 2026-04-29 13:21 | 18.48902 | -65.42467 | 7025 ft | 154 kts | 88° |
| 2026-04-29 13:21 | 18.48930 | -65.41338 | 7023 ft | 154 kts | 88° |
| 2026-04-29 13:21 | 18.48957 | -65.40193 | 7026 ft | 154 kts | 88° |
| 2026-04-29 13:22 | 18.48984 | -65.39066 | 7026 ft | 154 kts | 88° |
| 2026-04-29 13:22 | 18.49011 | -65.37937 | 7025 ft | 154 kts | 88° |
| 2026-04-29 13:22 | 18.49038 | -65.36809 | 7024 ft | 154 kts | 88° |
| 2026-04-29 13:22 | 18.49065 | -65.35681 | 7024 ft | 154 kts | 88° |
| 2026-04-29 13:23 | 18.49091 | -65.34553 | 7006 ft | 155 kts | 88° |
| 2026-04-29 13:23 | 18.49118 | -65.33421 | 7006 ft | 154 kts | 88° |
| 2026-04-29 13:23 | 18.49144 | -65.32292 | 7006 ft | 154 kts | 88° |
| 2026-04-29 13:23 | 18.49171 | -65.31166 | 7006 ft | 154 kts | 88° |
| 2026-04-29 13:24 | 18.49197 | -65.30039 | 7007 ft | 154 kts | 88° |
| 2026-04-29 13:24 | 18.49224 | -65.28908 | 7008 ft | 154 kts | 88° |
| 2026-04-29 13:24 | 18.49166 | -65.27783 | 7001 ft | 155 kts | 106° |
| 2026-04-29 13:24 | 18.48671 | -65.26776 | 7001 ft | 155 kts | 120° |
| 2026-04-29 13:25 | 18.48139 | -65.25790 | 7005 ft | 155 kts | 118° |
| 2026-04-29 13:25 | 18.47086 | -65.23820 | 7011 ft | 156 kts | 118° |
| 2026-04-29 13:25 | 18.46552 | -65.22826 | 7011 ft | 156 kts | 118° |
| 2026-04-29 13:26 | 18.46019 | -65.21830 | 7012 ft | 156 kts | 118° |
| 2026-04-29 13:26 | 18.45484 | -65.20838 | 7010 ft | 156 kts | 118° |
| 2026-04-29 13:26 | 18.44950 | -65.19845 | 7011 ft | 156 kts | 118° |
| 2026-04-29 13:26 | 18.44416 | -65.18853 | 7015 ft | 156 kts | 118° |
| 2026-04-29 13:27 | 18.43883 | -65.17862 | 7015 ft | 156 kts | 118° |
| 2026-04-29 13:27 | 18.43351 | -65.16870 | 7013 ft | 156 kts | 118° |
| 2026-04-29 13:27 | 18.42817 | -65.15878 | 7012 ft | 156 kts | 118° |
| 2026-04-29 13:27 | 18.42284 | -65.14886 | 7014 ft | 156 kts | 118° |
| 2026-04-29 13:28 | 18.41749 | -65.13893 | 7014 ft | 156 kts | 118° |
| 2026-04-29 13:28 | 18.41218 | -65.12901 | 7013 ft | 156 kts | 118° |
| 2026-04-29 13:28 | 18.40684 | -65.11912 | 7012 ft | 155 kts | 118° |
| 2026-04-29 13:28 | 18.40152 | -65.10924 | 7014 ft | 155 kts | 118° |
| 2026-04-29 13:29 | 18.39620 | -65.09935 | 7012 ft | 156 kts | 118° |
| 2026-04-29 13:29 | 18.39112 | -65.08928 | 7014 ft | 155 kts | 115° |
| 2026-04-29 13:29 | 18.38633 | -65.07910 | 7015 ft | 155 kts | 116° |
| 2026-04-29 13:29 | 18.38150 | -65.06911 | 7014 ft | 155 kts | 116° |
| 2026-04-29 13:30 | 18.37658 | -65.05903 | 7013 ft | 155 kts | 116° |
| 2026-04-29 13:30 | 18.37166 | -65.04895 | 7013 ft | 155 kts | 116° |
| 2026-04-29 13:30 | 18.36674 | -65.03888 | 7011 ft | 155 kts | 116° |
| 2026-04-29 13:30 | 18.36182 | -65.02884 | 7010 ft | 154 kts | 116° |
| 2026-04-29 13:31 | 18.35691 | -65.01878 | 7013 ft | 155 kts | 116° |
| 2026-04-29 13:31 | 18.35195 | -65.00865 | 7010 ft | 155 kts | 116° |
| 2026-04-29 13:31 | 18.34702 | -64.99857 | 7014 ft | 155 kts | 116° |
| 2026-04-29 13:31 | 18.34208 | -64.98849 | 7013 ft | 155 kts | 116° |
| 2026-04-29 13:32 | 18.33715 | -64.97841 | 7016 ft | 155 kts | 116° |
| 2026-04-29 13:32 | 18.33213 | -64.96815 | 7020 ft | 159 kts | 116° |
| 2026-04-29 13:32 | 18.32707 | -64.95779 | 7015 ft | 159 kts | 116° |
| 2026-04-29 13:32 | 18.32202 | -64.94747 | 7026 ft | 158 kts | 116° |
| 2026-04-29 13:33 | 18.31696 | -64.93712 | 7017 ft | 159 kts | 116° |
| 2026-04-29 13:33 | 18.31189 | -64.92683 | 7015 ft | 158 kts | 116° |
| 2026-04-29 13:33 | 18.30687 | -64.91656 | 7015 ft | 157 kts | 116° |
| 2026-04-29 13:33 | 18.30187 | -64.90637 | 7011 ft | 157 kts | 116° |
| 2026-04-29 13:34 | 18.29689 | -64.89619 | 7010 ft | 156 kts | 116° |
| 2026-04-29 13:34 | 18.29192 | -64.88605 | 7009 ft | 156 kts | 116° |
| 2026-04-29 13:34 | 18.28696 | -64.87593 | 7006 ft | 156 kts | 116° |
| 2026-04-29 13:34 | 18.28199 | -64.86579 | 7005 ft | 156 kts | 116° |
| 2026-04-29 13:35 | 18.27703 | -64.85568 | 7002 ft | 155 kts | 116° |
| 2026-04-29 13:35 | 18.27208 | -64.84558 | 7004 ft | 155 kts | 116° |
| 2026-04-29 13:35 | 18.26712 | -64.83548 | 7004 ft | 156 kts | 116° |
| 2026-04-29 13:35 | 18.26217 | -64.82537 | 7003 ft | 155 kts | 116° |
| 2026-04-29 13:36 | 18.25721 | -64.81527 | 7004 ft | 155 kts | 116° |
| 2026-04-29 13:36 | 18.25225 | -64.80518 | 7005 ft | 155 kts | 116° |
| 2026-04-29 13:36 | 18.24731 | -64.79509 | 7001 ft | 155 kts | 116° |
| 2026-04-29 13:36 | 18.24236 | -64.78501 | 7001 ft | 155 kts | 116° |
| 2026-04-29 13:37 | 18.23741 | -64.77492 | 7002 ft | 155 kts | 116° |
| 2026-04-29 13:37 | 18.23246 | -64.76485 | 7001 ft | 155 kts | 116° |
| 2026-04-29 13:37 | 18.22752 | -64.75480 | 7000 ft | 155 kts | 116° |
| 2026-04-29 13:37 | 18.22258 | -64.74474 | 6999 ft | 155 kts | 116° |
| 2026-04-29 13:38 | 18.21763 | -64.73466 | 7002 ft | 155 kts | 116° |
| 2026-04-29 13:38 | 18.21269 | -64.72458 | 7001 ft | 155 kts | 116° |
| 2026-04-29 13:38 | 18.20773 | -64.71453 | 6998 ft | 155 kts | 116° |
| 2026-04-29 13:38 | 18.20335 | -64.70562 | 6995 ft | 155 kts | 116° |
| 2026-04-29 13:39 | 18.19841 | -64.69556 | 6998 ft | 155 kts | 116° |
| 2026-04-29 13:39 | 18.19346 | -64.68550 | 6999 ft | 155 kts | 116° |
| 2026-04-29 13:39 | 18.18851 | -64.67542 | 6996 ft | 155 kts | 116° |
| 2026-04-29 13:39 | 18.18355 | -64.66534 | 7001 ft | 155 kts | 116° |
| 2026-04-29 13:40 | 18.17858 | -64.65524 | 6997 ft | 156 kts | 116° |
| 2026-04-29 13:40 | 18.17361 | -64.64514 | 7000 ft | 155 kts | 116° |
| 2026-04-29 13:40 | 18.17025 | -64.63833 | 6997 ft | 155 kts | 116° |
| 2026-04-29 13:40 | 18.16368 | -64.62495 | 6998 ft | 155 kts | 116° |
| 2026-04-29 13:41 | 18.15871 | -64.61487 | 6999 ft | 155 kts | 116° |
| 2026-04-29 13:41 | 18.15536 | -64.60806 | 6995 ft | 155 kts | 116° |
| 2026-04-29 13:41 | 18.15049 | -64.59815 | 7005 ft | 155 kts | 116° |
| 2026-04-29 13:41 | 18.14553 | -64.58810 | 7001 ft | 155 kts | 116° |
| 2026-04-29 13:42 | 18.14057 | -64.57803 | 7005 ft | 155 kts | 116° |
| 2026-04-29 13:42 | 18.13563 | -64.56799 | 7003 ft | 155 kts | 116° |
| 2026-04-29 13:42 | 18.13068 | -64.55796 | 7004 ft | 154 kts | 116° |
| 2026-04-29 13:42 | 18.12574 | -64.54792 | 7000 ft | 155 kts | 116° |
| 2026-04-29 13:43 | 18.12079 | -64.53788 | 7002 ft | 154 kts | 116° |
| 2026-04-29 13:43 | 18.11585 | -64.52788 | 7001 ft | 154 kts | 116° |
| 2026-04-29 13:43 | 18.11092 | -64.51787 | 7000 ft | 154 kts | 116° |
| 2026-04-29 13:43 | 18.10599 | -64.50786 | 6999 ft | 154 kts | 116° |
| 2026-04-29 13:44 | 18.10107 | -64.49789 | 7001 ft | 153 kts | 116° |
| 2026-04-29 13:44 | 18.09615 | -64.48796 | 7000 ft | 153 kts | 116° |
| 2026-04-29 13:44 | 18.09126 | -64.47798 | 6998 ft | 154 kts | 116° |
| 2026-04-29 13:44 | 18.08635 | -64.46801 | 6998 ft | 154 kts | 116° |
| 2026-04-29 13:45 | 18.08143 | -64.45809 | 7001 ft | 153 kts | 116° |
| 2026-04-29 13:45 | 18.07653 | -64.44819 | 7000 ft | 153 kts | 116° |
| 2026-04-29 13:45 | 18.07164 | -64.43825 | 7000 ft | 153 kts | 116° |
| 2026-04-29 13:45 | 18.06674 | -64.42831 | 7001 ft | 153 kts | 116° |
| 2026-04-29 13:46 | 18.06183 | -64.41838 | 7000 ft | 153 kts | 116° |
| 2026-04-29 13:46 | 18.05692 | -64.40844 | 7001 ft | 153 kts | 116° |
| 2026-04-29 13:46 | 18.05202 | -64.39851 | 7000 ft | 153 kts | 116° |
| 2026-04-29 13:46 | 18.04711 | -64.38858 | 7001 ft | 153 kts | 116° |
| 2026-04-29 13:47 | 18.04221 | -64.37866 | 6998 ft | 153 kts | 116° |
| 2026-04-29 13:47 | 18.03730 | -64.36874 | 7001 ft | 153 kts | 116° |
| 2026-04-29 13:47 | 18.03240 | -64.35885 | 7000 ft | 153 kts | 116° |
| 2026-04-29 13:47 | 18.02751 | -64.34891 | 7001 ft | 153 kts | 116° |
| 2026-04-29 13:48 | 18.02260 | -64.33900 | 7002 ft | 153 kts | 116° |
| 2026-04-29 13:48 | 18.01768 | -64.32906 | 7002 ft | 153 kts | 116° |
| 2026-04-29 13:48 | 18.01277 | -64.31911 | 7005 ft | 153 kts | 116° |
| 2026-04-29 13:48 | 18.00784 | -64.30917 | 7004 ft | 154 kts | 116° |
| 2026-04-29 13:49 | 18.00291 | -64.29921 | 7003 ft | 154 kts | 116° |
| 2026-04-29 13:49 | 17.99800 | -64.28928 | 7005 ft | 153 kts | 116° |
| 2026-04-29 13:49 | 17.99309 | -64.27935 | 7001 ft | 153 kts | 116° |
| 2026-04-29 13:49 | 17.98817 | -64.26944 | 7007 ft | 153 kts | 116° |
| 2026-04-29 13:50 | 17.98326 | -64.25950 | 7004 ft | 153 kts | 116° |
| 2026-04-29 13:50 | 17.97836 | -64.24959 | 7005 ft | 153 kts | 116° |
| 2026-04-29 13:50 | 17.97344 | -64.23969 | 7005 ft | 153 kts | 116° |
| 2026-04-29 13:50 | 17.96852 | -64.22972 | 7005 ft | 154 kts | 116° |
| 2026-04-29 13:51 | 17.96359 | -64.21979 | 7008 ft | 154 kts | 116° |
| 2026-04-29 13:51 | 17.95865 | -64.20982 | 7008 ft | 154 kts | 115° |
| 2026-04-29 13:51 | 17.95373 | -64.19986 | 7003 ft | 153 kts | 116° |
| 2026-04-29 13:51 | 17.94885 | -64.19007 | 7006 ft | 153 kts | 116° |
| 2026-04-29 13:52 | 17.94385 | -64.17997 | 7008 ft | 154 kts | 116° |
| 2026-04-29 13:52 | 17.93892 | -64.16998 | 7006 ft | 154 kts | 116° |
| 2026-04-29 13:52 | 17.93399 | -64.16008 | 7005 ft | 153 kts | 116° |
| 2026-04-29 13:52 | 17.92909 | -64.15021 | 7008 ft | 153 kts | 116° |
| 2026-04-29 13:53 | 17.92420 | -64.14032 | 7006 ft | 152 kts | 115° |
| 2026-04-29 13:53 | 17.91930 | -64.13046 | 7005 ft | 152 kts | 116° |
| 2026-04-29 13:53 | 17.91442 | -64.12061 | 7005 ft | 152 kts | 116° |
| 2026-04-29 13:53 | 17.90954 | -64.11081 | 7004 ft | 151 kts | 116° |
| 2026-04-29 13:54 | 17.90472 | -64.10107 | 7005 ft | 150 kts | 116° |
| 2026-04-29 13:54 | 17.89988 | -64.09133 | 7006 ft | 151 kts | 115° |
| 2026-04-29 13:54 | 17.89505 | -64.08156 | 7005 ft | 151 kts | 116° |
| 2026-04-29 13:54 | 17.89019 | -64.07180 | 7007 ft | 151 kts | 116° |
| 2026-04-29 13:55 | 17.88532 | -64.06202 | 7008 ft | 151 kts | 116° |
| 2026-04-29 13:55 | 17.88046 | -64.05222 | 7009 ft | 151 kts | 116° |
| 2026-04-29 13:55 | 17.87560 | -64.04242 | 7007 ft | 151 kts | 115° |
| 2026-04-29 13:55 | 17.87074 | -64.03265 | 7007 ft | 151 kts | 116° |
| 2026-04-29 13:56 | 17.86588 | -64.02288 | 7005 ft | 151 kts | 116° |
| 2026-04-29 13:56 | 17.86104 | -64.01314 | 7009 ft | 150 kts | 115° |
| 2026-04-29 13:56 | 17.85621 | -64.00340 | 7009 ft | 151 kts | 115° |
| 2026-04-29 13:56 | 17.85137 | -63.99366 | 7010 ft | 151 kts | 116° |
| 2026-04-29 13:57 | 17.84649 | -63.98389 | 7010 ft | 151 kts | 116° |
| 2026-04-29 13:57 | 17.84163 | -63.97410 | 7010 ft | 151 kts | 116° |
| 2026-04-29 13:57 | 17.83677 | -63.96433 | 7009 ft | 151 kts | 116° |
| 2026-04-29 13:57 | 17.83193 | -63.95458 | 7009 ft | 151 kts | 115° |
| 2026-04-29 13:58 | 17.82708 | -63.94486 | 7006 ft | 150 kts | 115° |
| 2026-04-29 13:58 | 17.82225 | -63.93513 | 7005 ft | 150 kts | 115° |
| 2026-04-29 13:58 | 17.81741 | -63.92541 | 7008 ft | 151 kts | 116° |
| 2026-04-29 13:58 | 17.81255 | -63.91566 | 7007 ft | 151 kts | 115° |
| 2026-04-29 13:59 | 17.80771 | -63.90596 | 7011 ft | 149 kts | 115° |
| 2026-04-29 13:59 | 17.80292 | -63.89631 | 7007 ft | 149 kts | 115° |
| 2026-04-29 13:59 | 17.79813 | -63.88670 | 7006 ft | 148 kts | 115° |
| 2026-04-29 13:59 | 17.79335 | -63.87714 | 7012 ft | 148 kts | 115° |
| 2026-04-29 14:00 | 17.78863 | -63.86765 | 7013 ft | 149 kts | 116° |
| 2026-04-29 14:00 | 17.78381 | -63.85797 | 7013 ft | 150 kts | 116° |
| 2026-04-29 14:00 | 17.77898 | -63.84825 | 7013 ft | 150 kts | 116° |
| 2026-04-29 14:00 | 17.77413 | -63.83852 | 7011 ft | 151 kts | 116° |
| 2026-04-29 14:01 | 17.76925 | -63.82879 | 7010 ft | 151 kts | 115° |
| 2026-04-29 14:01 | 17.76441 | -63.81906 | 7011 ft | 150 kts | 115° |
| 2026-04-29 14:01 | 17.75959 | -63.80937 | 7010 ft | 150 kts | 115° |
| 2026-04-29 14:01 | 17.75476 | -63.79969 | 7013 ft | 150 kts | 115° |
| 2026-04-29 14:02 | 17.74995 | -63.79002 | 7015 ft | 150 kts | 116° |
| 2026-04-29 14:02 | 17.74510 | -63.78034 | 7017 ft | 150 kts | 116° |
| 2026-04-29 14:02 | 17.74025 | -63.77063 | 7017 ft | 150 kts | 115° |
| 2026-04-29 14:02 | 17.73543 | -63.76090 | 7014 ft | 150 kts | 116° |
| 2026-04-29 14:03 | 17.73056 | -63.75118 | 7015 ft | 151 kts | 116° |
| 2026-04-29 14:03 | 17.72569 | -63.74144 | 7016 ft | 151 kts | 116° |
| 2026-04-29 14:03 | 17.72084 | -63.73170 | 7015 ft | 151 kts | 115° |
| 2026-04-29 14:03 | 17.71596 | -63.72195 | 7016 ft | 151 kts | 116° |
| 2026-04-29 14:04 | 17.71107 | -63.71219 | 7021 ft | 151 kts | 115° |
| 2026-04-29 14:04 | 17.70620 | -63.70241 | 7014 ft | 151 kts | 116° |
| 2026-04-29 14:04 | 17.70134 | -63.69263 | 7020 ft | 151 kts | 115° |
| 2026-04-29 14:04 | 17.69645 | -63.68287 | 7017 ft | 151 kts | 115° |
| 2026-04-29 14:05 | 17.69156 | -63.67312 | 7016 ft | 151 kts | 115° |
| 2026-04-29 14:05 | 17.68670 | -63.66338 | 7017 ft | 151 kts | 115° |
| 2026-04-29 14:05 | 17.68185 | -63.65363 | 7018 ft | 151 kts | 116° |
| 2026-04-29 14:05 | 17.67696 | -63.64387 | 7014 ft | 151 kts | 116° |
| 2026-04-29 14:06 | 17.67207 | -63.63411 | 7016 ft | 152 kts | 115° |
| 2026-04-29 14:06 | 17.66718 | -63.62431 | 7013 ft | 152 kts | 115° |
| 2026-04-29 14:06 | 17.66229 | -63.61454 | 7013 ft | 151 kts | 115° |
| 2026-04-29 14:06 | 17.65740 | -63.60480 | 7009 ft | 151 kts | 116° |
| 2026-04-29 14:07 | 17.65252 | -63.59506 | 7015 ft | 151 kts | 115° |
| 2026-04-29 14:07 | 17.64766 | -63.58533 | 7014 ft | 151 kts | 115° |
| 2026-04-29 14:07 | 17.64279 | -63.57557 | 7016 ft | 151 kts | 116° |
| 2026-04-29 14:07 | 17.63789 | -63.56579 | 7018 ft | 152 kts | 116° |
| 2026-04-29 14:08 | 17.63299 | -63.55598 | 7015 ft | 152 kts | 116° |
| 2026-04-29 14:08 | 17.62807 | -63.54616 | 7017 ft | 152 kts | 115° |
| 2026-04-29 14:08 | 17.62321 | -63.53650 | 7017 ft | 152 kts | 116° |
| 2026-04-29 14:08 | 17.61829 | -63.52670 | 7018 ft | 152 kts | 115° |
| 2026-04-29 14:09 | 17.61341 | -63.51690 | 7014 ft | 152 kts | 116° |
| 2026-04-29 14:09 | 17.60849 | -63.50709 | 7020 ft | 153 kts | 116° |
| 2026-04-29 14:09 | 17.60354 | -63.49722 | 7018 ft | 153 kts | 116° |
| 2026-04-29 14:09 | 17.59859 | -63.48730 | 7021 ft | 154 kts | 116° |
| 2026-04-29 14:10 | 17.59361 | -63.47737 | 7021 ft | 154 kts | 116° |
| 2026-04-29 14:10 | 17.58865 | -63.46748 | 7017 ft | 153 kts | 116° |
| 2026-04-29 14:10 | 17.58371 | -63.45765 | 7017 ft | 152 kts | 115° |
| 2026-04-29 14:10 | 17.57878 | -63.44783 | 7017 ft | 152 kts | 116° |
| 2026-04-29 14:11 | 17.57387 | -63.43804 | 7015 ft | 151 kts | 116° |
| 2026-04-29 14:11 | 17.56899 | -63.42830 | 7013 ft | 151 kts | 115° |
| 2026-04-29 14:11 | 17.56410 | -63.41854 | 7014 ft | 152 kts | 116° |
| 2026-04-29 14:11 | 17.55919 | -63.40875 | 7016 ft | 152 kts | 115° |
| 2026-04-29 14:12 | 17.55427 | -63.39894 | 7013 ft | 152 kts | 116° |
| 2026-04-29 14:12 | 17.54934 | -63.38911 | 7016 ft | 152 kts | 115° |
| 2026-04-29 14:12 | 17.54441 | -63.37929 | 7015 ft | 152 kts | 116° |
| 2026-04-29 14:12 | 17.53947 | -63.36948 | 7011 ft | 152 kts | 115° |
| 2026-04-29 14:13 | 17.53454 | -63.35968 | 7018 ft | 152 kts | 115° |
| 2026-04-29 14:13 | 17.52961 | -63.34985 | 7016 ft | 153 kts | 115° |
| 2026-04-29 14:13 | 17.52571 | -63.33955 | 7022 ft | 152 kts | 103° |
| 2026-04-29 14:13 | 17.52307 | -63.32884 | 7020 ft | 152 kts | 105° |
| 2026-04-29 14:14 | 17.51997 | -63.31828 | 7023 ft | 152 kts | 106° |
| 2026-04-29 14:14 | 17.51674 | -63.30771 | 7024 ft | 153 kts | 106° |
| 2026-04-29 14:14 | 17.51348 | -63.29713 | 7022 ft | 153 kts | 106° |
| 2026-04-29 14:14 | 17.51023 | -63.28658 | 7024 ft | 152 kts | 106° |
| 2026-04-29 14:15 | 17.50698 | -63.27604 | 7020 ft | 152 kts | 106° |
| 2026-04-29 14:15 | 17.50372 | -63.26548 | 7018 ft | 152 kts | 106° |
| 2026-04-29 14:15 | 17.50045 | -63.25495 | 7024 ft | 152 kts | 106° |
| 2026-04-29 14:15 | 17.49720 | -63.24442 | 7021 ft | 152 kts | 106° |
| 2026-04-29 14:16 | 17.49395 | -63.23390 | 7022 ft | 152 kts | 106° |
| 2026-04-29 14:16 | 17.49071 | -63.22339 | 7026 ft | 152 kts | 106° |
| 2026-04-29 14:16 | 17.48746 | -63.21288 | 7021 ft | 151 kts | 106° |
| 2026-04-29 14:16 | 17.48426 | -63.20255 | 7022 ft | 151 kts | 106° |
| 2026-04-29 14:17 | 17.48103 | -63.19210 | 7021 ft | 151 kts | 106° |
| 2026-04-29 14:17 | 17.47780 | -63.18165 | 7021 ft | 151 kts | 107° |
| 2026-04-29 14:17 | 17.47456 | -63.17119 | 7022 ft | 151 kts | 106° |
| 2026-04-29 14:17 | 17.47133 | -63.16074 | 7020 ft | 151 kts | 107° |
| 2026-04-29 14:18 | 17.46809 | -63.15031 | 7017 ft | 150 kts | 107° |
| 2026-04-29 14:18 | 17.46488 | -63.13990 | 7018 ft | 150 kts | 106° |
| 2026-04-29 14:18 | 17.46166 | -63.12953 | 7020 ft | 150 kts | 107° |
| 2026-04-29 14:18 | 17.45844 | -63.11913 | 7022 ft | 151 kts | 107° |
| 2026-04-29 14:19 | 17.45522 | -63.10872 | 7021 ft | 150 kts | 107° |
| 2026-04-29 14:19 | 17.45200 | -63.09836 | 7023 ft | 150 kts | 107° |
| 2026-04-29 14:19 | 17.44879 | -63.08798 | 7024 ft | 150 kts | 107° |
| 2026-04-29 14:19 | 17.44557 | -63.07759 | 7022 ft | 150 kts | 107° |
| 2026-04-29 14:20 | 17.44235 | -63.06721 | 7024 ft | 150 kts | 107° |
| 2026-04-29 14:20 | 17.43913 | -63.05683 | 7023 ft | 150 kts | 107° |
| 2026-04-29 14:20 | 17.43590 | -63.04641 | 7028 ft | 151 kts | 107° |
| 2026-04-29 14:20 | 17.43266 | -63.03596 | 7028 ft | 151 kts | 107° |
| 2026-04-29 14:21 | 17.42941 | -63.02547 | 7028 ft | 151 kts | 107° |
| 2026-04-29 14:21 | 17.42615 | -63.01500 | 7030 ft | 151 kts | 107° |
| 2026-04-29 14:21 | 17.42291 | -63.00456 | 7030 ft | 150 kts | 107° |
| 2026-04-29 14:21 | 17.41966 | -62.99414 | 7029 ft | 151 kts | 107° |
| 2026-04-29 14:22 | 17.41642 | -62.98365 | 7030 ft | 152 kts | 107° |
| 2026-04-29 14:22 | 17.41317 | -62.97317 | 7028 ft | 151 kts | 107° |
| 2026-04-29 14:22 | 17.40991 | -62.96272 | 7027 ft | 151 kts | 107° |
| 2026-04-29 14:22 | 17.40666 | -62.95228 | 7031 ft | 151 kts | 107° |
| 2026-04-29 14:23 | 17.40342 | -62.94183 | 7027 ft | 151 kts | 107° |
| 2026-04-29 14:23 | 17.40019 | -62.93142 | 7028 ft | 150 kts | 107° |
| 2026-04-29 14:23 | 17.39695 | -62.92101 | 7028 ft | 151 kts | 107° |
| 2026-04-29 14:23 | 17.39371 | -62.91058 | 7026 ft | 151 kts | 107° |
| 2026-04-29 14:24 | 17.39046 | -62.90016 | 7024 ft | 150 kts | 107° |
| 2026-04-29 14:24 | 17.38722 | -62.88975 | 7025 ft | 150 kts | 107° |
| 2026-04-29 14:24 | 17.38397 | -62.87933 | 7024 ft | 150 kts | 107° |
| 2026-04-29 14:24 | 17.38074 | -62.86893 | 7022 ft | 150 kts | 107° |
| 2026-04-29 14:25 | 17.37751 | -62.85852 | 7021 ft | 150 kts | 107° |
| 2026-04-29 14:25 | 17.37428 | -62.84817 | 7021 ft | 149 kts | 107° |
| 2026-04-29 14:25 | 17.37107 | -62.83787 | 7019 ft | 149 kts | 106° |
| 2026-04-29 14:25 | 17.36786 | -62.82754 | 7018 ft | 150 kts | 107° |
| 2026-04-29 14:26 | 17.36466 | -62.81730 | 7026 ft | 144 kts | 107° |
| 2026-04-29 14:26 | 17.36263 | -62.81075 | 7023 ft | 142 kts | 107° |
| 2026-04-29 14:26 | 17.35955 | -62.80089 | 7026 ft | 144 kts | 107° |
| 2026-04-29 14:26 | 17.35640 | -62.79082 | 7028 ft | 147 kts | 107° |
| 2026-04-29 14:27 | 17.35322 | -62.78057 | 7029 ft | 149 kts | 107° |
| 2026-04-29 14:27 | 17.34998 | -62.77022 | 7040 ft | 150 kts | 107° |
| 2026-04-29 14:27 | 17.34675 | -62.75984 | 7036 ft | 150 kts | 107° |
| 2026-04-29 14:28 | 17.34025 | -62.73903 | 7038 ft | 151 kts | 107° |
| 2026-04-29 14:28 | 17.33700 | -62.72859 | 7035 ft | 151 kts | 107° |
| 2026-04-29 14:28 | 17.33375 | -62.71818 | 7036 ft | 151 kts | 107° |
| 2026-04-29 14:28 | 17.33047 | -62.70769 | 7035 ft | 152 kts | 107° |
| 2026-04-29 14:29 | 17.32717 | -62.69713 | 7030 ft | 152 kts | 107° |
| 2026-04-29 14:29 | 17.32390 | -62.68663 | 7030 ft | 151 kts | 107° |
| 2026-04-29 14:29 | 17.32062 | -62.67616 | 7027 ft | 151 kts | 107° |
| 2026-04-29 14:29 | 17.31735 | -62.66572 | 7027 ft | 151 kts | 108° |
| 2026-04-29 14:30 | 17.31410 | -62.65530 | 7028 ft | 151 kts | 107° |
| 2026-04-29 14:30 | 17.31085 | -62.64489 | 7028 ft | 151 kts | 107° |
| 2026-04-29 14:30 | 17.30760 | -62.63448 | 7026 ft | 150 kts | 107° |
| 2026-04-29 14:30 | 17.30435 | -62.62411 | 7027 ft | 150 kts | 107° |
| 2026-04-29 14:31 | 17.30111 | -62.61373 | 7025 ft | 150 kts | 107° |
| 2026-04-29 14:31 | 17.29787 | -62.60339 | 7025 ft | 150 kts | 107° |
| 2026-04-29 14:31 | 17.29463 | -62.59305 | 7026 ft | 149 kts | 108° |
| 2026-04-29 14:31 | 17.29139 | -62.58269 | 7026 ft | 150 kts | 107° |
| 2026-04-29 14:32 | 17.28815 | -62.57232 | 7028 ft | 150 kts | 107° |
| 2026-04-29 14:32 | 17.28489 | -62.56192 | 7027 ft | 151 kts | 107° |
| 2026-04-29 14:32 | 17.28163 | -62.55151 | 7025 ft | 150 kts | 108° |
| 2026-04-29 14:32 | 17.27838 | -62.54114 | 7023 ft | 150 kts | 107° |
| 2026-04-29 14:33 | 17.27513 | -62.53078 | 7025 ft | 150 kts | 107° |
| 2026-04-29 14:33 | 17.27188 | -62.52037 | 7024 ft | 151 kts | 107° |
| 2026-04-29 14:33 | 17.26860 | -62.50994 | 7021 ft | 151 kts | 107° |
| 2026-04-29 14:33 | 17.26533 | -62.49950 | 7023 ft | 151 kts | 108° |
| 2026-04-29 14:34 | 17.26207 | -62.48911 | 7024 ft | 150 kts | 107° |
| 2026-04-29 14:34 | 17.25882 | -62.47873 | 7020 ft | 150 kts | 108° |
| 2026-04-29 14:34 | 17.25557 | -62.46839 | 7020 ft | 150 kts | 107° |
| 2026-04-29 14:34 | 17.25233 | -62.45806 | 7020 ft | 149 kts | 107° |
| 2026-04-29 14:35 | 17.24909 | -62.44772 | 7017 ft | 150 kts | 108° |
| 2026-04-29 14:35 | 17.24585 | -62.43738 | 7015 ft | 149 kts | 107° |
| 2026-04-29 14:35 | 17.24261 | -62.42708 | 7015 ft | 149 kts | 108° |
| 2026-04-29 14:35 | 17.23939 | -62.41682 | 7012 ft | 148 kts | 108° |
| 2026-04-29 14:36 | 17.23616 | -62.40657 | 7010 ft | 148 kts | 108° |
| 2026-04-29 14:36 | 17.23294 | -62.39632 | 7012 ft | 149 kts | 108° |
| 2026-04-29 14:36 | 17.22971 | -62.38602 | 7012 ft | 149 kts | 107° |
| 2026-04-29 14:36 | 17.22646 | -62.37568 | 7010 ft | 150 kts | 107° |
| 2026-04-29 14:37 | 17.22322 | -62.36534 | 7008 ft | 149 kts | 107° |
| 2026-04-29 14:37 | 17.21997 | -62.35503 | 7008 ft | 149 kts | 108° |
| 2026-04-29 14:37 | 17.21673 | -62.34473 | 7005 ft | 149 kts | 108° |
| 2026-04-29 14:37 | 17.21350 | -62.33446 | 7008 ft | 149 kts | 108° |
| 2026-04-29 14:38 | 17.21026 | -62.32414 | 7003 ft | 149 kts | 108° |
| 2026-04-29 14:38 | 17.20701 | -62.31384 | 7007 ft | 149 kts | 108° |
| 2026-04-29 14:38 | 17.20377 | -62.30354 | 7006 ft | 149 kts | 108° |
| 2026-04-29 14:38 | 17.20053 | -62.29325 | 7003 ft | 149 kts | 108° |
| 2026-04-29 14:39 | 17.19728 | -62.28294 | 7004 ft | 149 kts | 108° |
| 2026-04-29 14:39 | 17.19408 | -62.27275 | 7001 ft | 150 kts | 108° |
| 2026-04-29 14:39 | 17.19084 | -62.26245 | 7000 ft | 149 kts | 108° |
| 2026-04-29 14:39 | 17.18760 | -62.25219 | 7001 ft | 148 kts | 108° |
| 2026-04-29 14:40 | 17.18437 | -62.24196 | 7003 ft | 148 kts | 108° |
| 2026-04-29 14:40 | 17.18115 | -62.23171 | 7000 ft | 149 kts | 108° |
| 2026-04-29 14:40 | 17.17791 | -62.22142 | 7000 ft | 149 kts | 108° |
| 2026-04-29 14:40 | 17.17467 | -62.21112 | 7000 ft | 149 kts | 107° |
| 2026-04-29 14:41 | 17.17142 | -62.20084 | 6998 ft | 149 kts | 108° |
| 2026-04-29 14:41 | 17.16820 | -62.19068 | 6995 ft | 145 kts | 108° |
| 2026-04-29 14:41 | 17.16511 | -62.18088 | 7000 ft | 139 kts | 108° |
| 2026-04-29 14:41 | 17.16214 | -62.17142 | 7007 ft | 135 kts | 107° |
| 2026-04-29 14:42 | 17.15914 | -62.16190 | 6882 ft | 142 kts | 108° |
| 2026-04-29 14:42 | 17.15599 | -62.15199 | 6724 ft | 144 kts | 108° |
| 2026-04-29 14:42 | 17.15285 | -62.14206 | 6559 ft | 144 kts | 108° |
| 2026-04-29 14:42 | 17.14973 | -62.13213 | 6403 ft | 143 kts | 108° |
| 2026-04-29 14:43 | 17.14661 | -62.12226 | 6234 ft | 143 kts | 108° |
| 2026-04-29 14:43 | 17.14353 | -62.11251 | 6065 ft | 143 kts | 108° |
| 2026-04-29 14:43 | 17.14040 | -62.10259 | 5895 ft | 144 kts | 108° |
| 2026-04-29 14:43 | 17.13728 | -62.09270 | 5725 ft | 142 kts | 108° |
| 2026-04-29 14:44 | 17.13421 | -62.08306 | 5539 ft | 138 kts | 108° |
| 2026-04-29 14:44 | 17.13121 | -62.07354 | 5346 ft | 138 kts | 109° |
| 2026-04-29 14:44 | 17.12816 | -62.06388 | 5152 ft | 138 kts | 108° |
| 2026-04-29 14:44 | 17.12519 | -62.05450 | 4963 ft | 137 kts | 108° |
| 2026-04-29 14:45 | 17.12221 | -62.04506 | 4771 ft | 137 kts | 109° |
| 2026-04-29 14:45 | 17.11922 | -62.03563 | 4569 ft | 137 kts | 109° |
| 2026-04-29 14:45 | 17.11626 | -62.02627 | 4379 ft | 139 kts | 109° |
| 2026-04-29 14:45 | 17.11399 | -62.01904 | 4237 ft | 140 kts | 109° |
| 2026-04-29 14:46 | 17.11094 | -62.00937 | 4043 ft | 140 kts | 109° |
| 2026-04-29 14:46 | 17.10789 | -61.99979 | 3849 ft | 138 kts | 108° |
| 2026-04-29 14:46 | 17.10487 | -61.99024 | 3659 ft | 139 kts | 108° |
| 2026-04-29 14:46 | 17.10184 | -61.98069 | 3470 ft | 139 kts | 109° |
| 2026-04-29 14:47 | 17.09879 | -61.97106 | 3288 ft | 140 kts | 109° |
| 2026-04-29 14:47 | 17.09575 | -61.96140 | 3090 ft | 140 kts | 108° |
| 2026-04-29 14:47 | 17.09273 | -61.95177 | 2889 ft | 139 kts | 109° |
| 2026-04-29 14:47 | 17.08967 | -61.94226 | 2688 ft | 138 kts | 108° |
| 2026-04-29 14:48 | 17.08661 | -61.93287 | 2526 ft | 132 kts | 110° |
| 2026-04-29 14:48 | 17.08353 | -61.92431 | 2514 ft | 121 kts | 106° |
| 2026-04-29 14:48 | 17.08211 | -61.91594 | 2513 ft | 114 kts | 96° |
| 2026-04-29 14:48 | 17.08323 | -61.90789 | 2473 ft | 115 kts | 71° |
| 2026-04-29 14:49 | 17.08610 | -61.89940 | 2139 ft | 130 kts | 73° |
| 2026-04-29 14:49 | 17.08946 | -61.89035 | 1832 ft | 136 kts | 70° |
| 2026-04-29 14:49 | 17.09295 | -61.88142 | 1488 ft | 130 kts | 71° |
| 2026-04-29 14:49 | 17.09637 | -61.87291 | 1299 ft | 117 kts | 69° |
| 2026-04-29 14:50 | 17.09959 | -61.86518 | 1317 ft | 118 kts | 69° |
| 2026-04-29 14:50 | 17.10296 | -61.85688 | 1317 ft | 123 kts | 70° |
| 2026-04-29 14:50 | 17.10633 | -61.84847 | 1285 ft | 124 kts | 68° |
| 2026-04-29 14:50 | 17.10949 | -61.84055 | 1298 ft | 117 kts | 69° |
| 2026-04-29 14:51 | 17.11289 | -61.83284 | 1301 ft | 116 kts | 66° |
| 2026-04-29 14:51 | 17.11693 | -61.82607 | 1223 ft | 102 kts | 57° |
| 2026-04-29 14:51 | 17.12100 | -61.81981 | 924 ft | 109 kts | 63° |
| 2026-04-29 14:51 | 17.12486 | -61.81273 | 634 ft | 107 kts | 65° |
| 2026-04-29 14:52 | 17.12854 | -61.80640 | 286 ft | 99 kts | 58° |
| 2026-04-29 14:52 | 17.13203 | -61.80059 | 71 ft | 84 kts | 71° |
| 2026-04-29 14:52 | 17.13455 | -61.79614 | 55 ft | 61 kts | 60° |
| 2026-04-29 14:52 | 17.13611 | -61.79348 | 47 ft | 23 kts | 58° |
| 2026-04-29 14:53 | 17.13702 | -61.79329 | 49 ft | 19 kts | 333° |
| 2026-04-29 14:53 | 17.13779 | -61.79321 | 48 ft | 8 kts | 51° |
| 2026-04-29 14:53 | 17.13789 | -61.79306 | 48 ft | 0 kts | 112° |